Time;durP1;ratioP1;P1;durP2;ratioP2;P2;SDS_P1;SDS_P2;PMS_P1;PMS_P2;Temp;Humidity;BMP_temperature;BMP_pressure;BME280_temperature;BME280_humidity;BME280_pressure;Samples;Min_cycle;Max_cycle;Signal;HPM_P1;HPM_P2
2021/03/31 00:00:30;;;;;;;21.93;11.53;;;;;;;5.60;60.31;101694.56;4938043;28;20046;-74
2021/03/31 00:02:57;;;;;;;22.50;12.32;;;;;;;5.45;60.67;101702.81;5010839;28;20033;-71
2021/03/31 00:05:23;;;;;;;15.37;10.40;;;;;;;5.49;60.69;101693.72;5008753;28;20045;-73
2021/03/31 00:07:50;;;;;;;15.40;10.10;;;;;;;5.48;60.57;101710.75;5010415;28;20141;-74
2021/03/31 00:10:19;;;;;;;23.17;13.33;;;;;;;5.26;59.97;101656.97;5008702;28;20044;-72
2021/03/31 00:12:45;;;;;;;21.80;12.47;;;;;;;5.60;60.01;101695.44;5008466;28;20408;-72
2021/03/31 00:15:11;;;;;;;31.80;16.43;;;;;;;5.46;60.37;101709.75;5007279;28;20033;-71
2021/03/31 00:17:41;;;;;;;23.87;13.63;;;;;;;5.47;60.63;101708.06;5008489;28;20030;-72
2021/03/31 00:20:11;;;;;;;18.88;10.63;;;;;;;5.52;60.75;101711.91;4989600;28;20030;-73
2021/03/31 00:22:36;;;;;;;12.87;9.67;;;;;;;5.31;60.16;101703.44;5008391;28;20088;-72
2021/03/31 00:25:02;;;;;;;14.77;10.70;;;;;;;5.12;60.74;101708.75;5006915;28;20034;-73
2021/03/31 00:27:28;;;;;;;14.30;9.90;;;;;;;4.92;60.93;101690.19;5007160;28;20535;-74
2021/03/31 00:29:53;;;;;;;126.37;42.03;;;;;;;4.97;60.81;101709.34;5008314;28;20026;-74
2021/03/31 00:32:19;;;;;;;140.07;43.53;;;;;;;4.92;61.41;101715.78;5008618;28;20032;-74
2021/03/31 00:34:44;;;;;;;51.33;22.37;;;;;;;4.87;61.70;101706.81;4993003;28;20483;-70
2021/03/31 00:37:09;;;;;;;16.37;10.43;;;;;;;4.80;61.52;101707.13;5013466;28;20026;-71
2021/03/31 00:39:35;;;;;;;14.53;9.13;;;;;;;4.44;62.05;101718.72;5015085;28;20469;-70
2021/03/31 00:42:00;;;;;;;16.17;9.83;;;;;;;4.25;62.64;101712.09;5014086;28;20036;-70
2021/03/31 00:44:26;;;;;;;20.20;13.13;;;;;;;4.37;62.35;101705.44;5014436;28;20034;-70
2021/03/31 00:46:51;;;;;;;15.07;9.97;;;;;;;4.40;61.96;101696.19;5014493;28;20109;-69
2021/03/31 00:49:16;;;;;;;14.13;9.70;;;;;;;4.48;62.09;101713.06;5014484;28;20034;-70
2021/03/31 00:51:42;;;;;;;14.60;10.17;;;;;;;4.48;62.02;101706.28;5014696;28;20030;-70
2021/03/31 00:54:07;;;;;;;14.20;10.07;;;;;;;4.52;62.05;101705.78;5014157;28;20036;-70
2021/03/31 00:56:33;;;;;;;14.87;10.27;;;;;;;4.17;62.01;101636.44;4996412;28;20030;-70
2021/03/31 00:58:59;;;;;;;15.17;9.80;;;;;;;4.56;61.96;101703.47;5014321;28;20057;-70
2021/03/31 01:01:24;;;;;;;14.17;10.37;;;;;;;4.57;62.01;101705.25;5014590;28;20491;-70
2021/03/31 01:03:50;;;;;;;16.37;10.00;;;;;;;4.46;62.29;101701.81;5014255;28;20033;-70
2021/03/31 01:06:15;;;;;;;14.10;10.30;;;;;;;4.34;62.15;101686.38;4996471;28;20050;-70
2021/03/31 01:08:40;;;;;;;17.50;10.47;;;;;;;4.40;61.88;101688.53;4972663;28;20047;-71
2021/03/31 01:11:06;;;;;;;16.63;9.57;;;;;;;4.46;62.23;101694.16;4972072;28;20046;-72
2021/03/31 01:13:40;;;;;;;15.50;10.57;;;;;;;4.49;61.60;101692.72;4956421;28;20039;-70
2021/03/31 01:16:27;;;;;;;14.73;9.77;;;;;;;4.22;62.62;101699.03;4972577;28;20138;-69
2021/03/31 01:18:59;;;;;;;17.20;10.20;;;;;;;4.05;63.04;101679.78;4972599;28;20054;-70
2021/03/31 01:21:36;;;;;;;16.93;10.43;;;;;;;3.98;62.93;101703.91;4972077;28;20031;-69
2021/03/31 01:24:35;;;;;;;14.33;10.00;;;;;;;3.89;63.70;101700.59;4972824;28;20058;-70
2021/03/31 01:27:07;;;;;;;16.73;10.25;;;;;;;3.43;64.24;101641.44;4956258;28;20185;-70
2021/03/31 01:30:06;;;;;;;16.63;10.43;;;;;;;3.66;64.33;101696.09;4972074;28;20050;-71
2021/03/31 01:32:44;;;;;;;15.17;10.17;;;;;;;3.63;64.53;101708.63;4972441;28;20035;-69
2021/03/31 01:35:14;;;;;;;13.13;9.73;;;;;;;3.58;64.69;101698.00;4972630;28;20039;-70
2021/03/31 01:37:46;;;;;;;12.43;7.93;;;;;;;3.20;65.05;101640.38;4955995;28;20121;-70
2021/03/31 01:40:16;;;;;;;15.37;10.30;;;;;;;3.32;65.00;101648.16;5001077;28;20030;-70
2021/03/31 01:42:47;;;;;;;15.52;10.75;;;;;;;3.45;64.89;101684.97;5013616;28;20032;-69
2021/03/31 01:45:17;;;;;;;17.07;11.37;;;;;;;3.29;66.28;101698.06;5013353;28;20026;-70
2021/03/31 01:47:44;;;;;;;;;;;;;;;2.88;68.00;101709.03;5013822;28;20434;-69
2021/03/31 01:50:11;;;;;;;15.70;10.60;;;;;;;2.61;69.20;101710.03;5013502;28;19913;-70
2021/03/31 01:52:38;;;;;;;19.17;12.27;;;;;;;2.69;69.31;101704.84;5013793;28;20022;-71
2021/03/31 01:55:06;;;;;;;18.80;11.67;;;;;;;2.91;68.58;101710.16;5013022;28;20112;-71
2021/03/31 01:57:32;;;;;;;16.00;11.43;;;;;;;3.00;67.78;101693.88;5013057;28;20153;-72
2021/03/31 01:59:59;;;;;;;16.53;11.40;;;;;;;2.86;67.56;101654.44;4995716;28;20108;-70
2021/03/31 02:02:25;;;;;;;15.17;11.00;;;;;;;2.88;66.92;101633.41;5012706;28;20465;-69
2021/03/31 02:04:51;;;;;;;15.63;11.13;;;;;;;3.27;65.79;101718.34;5013065;28;20112;-69
2021/03/31 02:07:20;;;;;;;23.20;11.80;;;;;;;2.90;65.85;101649.75;5013072;28;20061;-71
2021/03/31 02:09:47;;;;;;;17.97;11.80;;;;;;;3.34;66.18;101707.91;5013219;28;20029;-70
2021/03/31 02:12:17;;;;;;;26.37;14.07;;;;;;;3.25;65.98;101709.66;5013038;28;20030;-70
2021/03/31 02:14:46;;;;;;;18.67;12.53;;;;;;;3.33;65.64;101706.13;4995255;28;20025;-70
2021/03/31 02:17:15;;;;;;;20.40;12.43;;;;;;;3.05;66.83;101703.75;5012938;28;20049;-70
2021/03/31 02:19:42;;;;;;;16.67;12.02;;;;;;;2.88;67.16;101681.84;4995308;28;20026;-70
2021/03/31 02:22:09;;;;;;;17.27;12.07;;;;;;;3.18;66.98;101689.50;5012795;28;20120;-69
2021/03/31 02:24:36;;;;;;;28.47;15.23;;;;;;;3.33;66.17;101690.81;5012827;28;20040;-70
2021/03/31 02:27:04;;;;;;;21.70;13.47;;;;;;;3.33;65.31;101690.81;5012918;28;20040;-72
2021/03/31 02:29:29;;;;;;;21.03;13.53;;;;;;;3.24;66.30;101687.47;5012377;28;20525;-70
2021/03/31 02:31:56;;;;;;;20.60;13.73;;;;;;;2.89;66.78;101662.34;4995039;28;20033;-70
2021/03/31 02:34:22;;;;;;;18.13;13.23;;;;;;;3.09;66.81;101702.34;5012118;28;20034;-71
2021/03/31 02:36:49;;;;;;;17.83;11.70;;;;;;;2.98;67.67;101698.88;5012394;28;20443;-70
2021/03/31 02:39:16;;;;;;;17.73;11.60;;;;;;;2.80;68.63;101689.59;4995155;28;20041;-69
2021/03/31 02:41:48;;;;;;;20.83;13.77;;;;;;;2.63;68.08;101700.84;5012180;28;20408;-70
2021/03/31 02:44:16;;;;;;;21.80;13.03;;;;;;;2.49;67.82;101704.72;5012656;28;20105;-70
2021/03/31 02:46:43;;;;;;;18.17;12.83;;;;;;;2.56;67.44;101714.72;5012393;28;20048;-70
2021/03/31 02:49:10;;;;;;;22.77;13.27;;;;;;;2.41;67.88;101710.03;5012486;28;20060;-69
2021/03/31 02:51:37;;;;;;;19.10;12.83;;;;;;;2.35;68.43;101721.34;5012166;28;20485;-69
2021/03/31 02:54:06;;;;;;;20.50;13.40;;;;;;;2.18;68.60;101661.19;5012453;28;20029;-70
2021/03/31 02:56:33;;;;;;;18.17;12.45;;;;;;;2.70;68.19;101732.13;4994468;28;20088;-71
2021/03/31 02:59:00;;;;;;;18.57;12.00;;;;;;;2.83;67.45;101718.81;5011457;28;20030;-70
2021/03/31 03:01:27;;;;;;;18.57;12.47;;;;;;;2.94;65.81;101722.31;4994059;28;20022;-70
2021/03/31 03:03:55;;;;;;;16.80;11.90;;;;;;;2.90;65.07;101720.25;4951242;29;20668;-69
2021/03/31 03:06:23;;;;;;;18.83;12.93;;;;;;;2.97;66.13;101709.81;4951043;29;20524;-70
2021/03/31 03:08:49;;;;;;;23.57;12.60;;;;;;;2.91;66.94;101711.84;4951144;29;20051;-69
2021/03/31 03:11:15;;;;;;;22.47;12.23;;;;;;;2.80;67.53;101710.88;4951494;29;20053;-69
2021/03/31 03:13:42;;;;;;;19.27;12.53;;;;;;;2.53;68.90;101714.44;4932066;29;20035;-70
2021/03/31 03:16:09;;;;;;;20.07;12.43;;;;;;;2.61;68.00;101707.50;4945920;29;20035;-71
2021/03/31 03:18:34;;;;;;;23.53;13.60;;;;;;;2.46;69.05;101699.38;4951320;29;20039;-70
2021/03/31 03:21:00;;;;;;;123.23;43.90;;;;;;;2.70;68.82;101719.38;4951214;29;20106;-70
2021/03/31 03:23:27;;;;;;;32.07;17.23;;;;;;;2.73;68.17;101717.09;4900120;29;20104;-75
2021/03/31 03:25:53;;;;;;;29.23;15.47;;;;;;;2.70;67.67;101716.81;4947357;29;20425;-71
2021/03/31 03:28:22;;;;;;;27.13;15.43;;;;;;;2.56;67.60;101720.69;4934432;29;20485;-70
2021/03/31 03:30:48;;;;;;;24.57;14.03;;;;;;;2.54;67.47;101727.34;4950884;29;20039;-70
2021/03/31 03:33:17;;;;;;;19.10;13.33;;;;;;;2.46;67.73;101722.31;4950515;29;20267;-69
2021/03/31 03:35:43;;;;;;;25.80;16.57;;;;;;;2.55;67.40;101718.91;5002006;28;20121;-70
2021/03/31 03:38:09;;;;;;;19.87;13.80;;;;;;;2.48;65.81;101715.66;5011083;28;20072;-71
2021/03/31 03:40:35;;;;;;;20.37;13.20;;;;;;;2.28;65.45;101665.47;5011084;28;20490;-69
2021/03/31 03:43:01;;;;;;;20.23;13.17;;;;;;;2.35;66.21;101724.75;5011083;28;20052;-70
2021/03/31 03:45:30;;;;;;;23.37;12.87;;;;;;;2.38;66.39;101722.50;5011217;28;20480;-74
2021/03/31 03:47:56;;;;;;;23.93;13.93;;;;;;;2.38;66.90;101730.16;4993784;28;20031;-70
2021/03/31 03:50:23;;;;;;;20.63;13.13;;;;;;;1.98;66.59;101647.59;5011889;28;20034;-71
2021/03/31 03:52:50;;;;;;;26.77;14.10;;;;;;;2.24;67.24;101726.38;4994001;28;20038;-71
2021/03/31 03:55:25;;;;;;;23.77;15.47;;;;;;;2.28;67.73;101730.09;4993892;28;20029;-71
2021/03/31 03:57:52;;;;;;;28.37;16.37;;;;;;;1.92;68.96;101739.59;5011522;28;20025;-71
2021/03/31 04:00:23;;;;;;;26.47;16.17;;;;;;;1.55;70.21;101735.28;5011644;28;20087;-71
2021/03/31 04:02:55;;;;;;;25.80;14.97;;;;;;;1.33;70.79;101730.72;5011497;28;20088;-71
2021/03/31 04:05:22;;;;;;;27.87;14.60;;;;;;;1.52;69.72;101718.09;5011842;28;20049;-70
2021/03/31 04:07:48;;;;;;;21.90;14.93;;;;;;;1.81;68.61;101741.88;5003090;28;20089;-76
2021/03/31 04:10:16;;;;;;;20.43;13.43;;;;;;;1.64;69.24;101742.88;5011054;28;20026;-71
2021/03/31 04:12:41;;;;;;;20.10;13.13;;;;;;;1.09;69.35;101692.03;5005381;28;20037;-70
2021/03/31 04:15:09;;;;;;;18.43;12.50;;;;;;;1.61;68.44;101746.03;5011524;28;20029;-71
2021/03/31 04:17:41;;;;;;;19.27;12.90;;;;;;;1.33;69.35;101751.06;5011631;28;20109;-70
2021/03/31 04:20:20;;;;;;;31.57;15.80;;;;;;;0.98;70.53;101746.06;4993698;28;20404;-71
2021/03/31 04:22:49;;;;;;;29.45;15.77;;;;;;;1.17;69.97;101763.97;5011409;28;20496;-70
2021/03/31 04:25:17;;;;;;;66.63;27.55;;;;;;;1.21;69.91;101762.63;5011312;28;20034;-71
2021/03/31 04:27:49;;;;;;;19.57;12.77;;;;;;;1.12;69.99;101744.81;5011343;28;20026;-71
2021/03/31 04:30:16;;;;;;;133.37;49.33;;;;;;;1.09;69.78;101737.81;5009156;28;20034;-71
2021/03/31 04:32:52;;;;;;;83.03;35.10;;;;;;;1.18;69.96;101739.44;5011316;28;20056;-72
2021/03/31 04:35:19;;;;;;;44.00;21.97;;;;;;;1.21;69.77;101727.91;5010569;28;20116;-70
2021/03/31 04:37:46;;;;;;;52.77;29.83;;;;;;;1.32;69.96;101754.38;5011030;28;20520;-77
2021/03/31 04:40:16;;;;;;;39.00;23.50;;;;;;;1.20;70.58;101754.09;5010586;28;20521;-71
2021/03/31 04:42:42;;;;;;;30.47;19.80;;;;;;;1.18;70.61;101757.25;4993540;28;20034;-70
2021/03/31 04:45:10;;;;;;;38.37;21.43;;;;;;;1.15;70.56;101737.50;5011219;28;20396;-70
2021/03/31 04:47:37;;;;;;;24.67;15.50;;;;;;;1.37;70.13;101753.16;5011176;28;20076;-70
2021/03/31 04:50:08;;;;;;;22.77;13.67;;;;;;;1.44;69.38;101747.00;4993261;28;20038;-70
2021/03/31 04:52:34;;;;;;;23.37;14.20;;;;;;;1.47;69.06;101734.56;5011088;28;20033;-71
2021/03/31 04:54:59;;;;;;;29.60;15.33;;;;;;;1.48;69.43;101740.56;5011206;28;20026;-70
2021/03/31 04:57:25;;;;;;;23.93;14.67;;;;;;;1.32;70.36;101753.47;5010926;28;20034;-70
2021/03/31 04:59:50;;;;;;;23.33;15.80;;;;;;;1.34;70.21;101757.94;5010616;28;20033;-70
2021/03/31 05:02:16;;;;;;;30.83;21.93;;;;;;;1.12;69.60;101686.34;4992795;28;20062;-72
2021/03/31 05:04:41;;;;;;;22.30;15.30;;;;;;;1.39;69.77;101745.66;5011003;28;20026;-70
2021/03/31 05:07:08;;;;;;;23.33;14.03;;;;;;;0.68;71.33;101676.28;5010859;28;20495;-73
2021/03/31 05:09:33;;;;;;;20.50;13.10;;;;;;;0.99;71.20;101724.97;5010681;28;20037;-73
2021/03/31 05:12:00;;;;;;;21.27;13.57;;;;;;;1.40;70.50;101750.91;5010605;28;20026;-73
2021/03/31 05:14:26;;;;;;;28.50;15.80;;;;;;;1.70;69.78;101751.09;5011009;28;20029;-73
2021/03/31 05:16:51;;;;;;;32.03;19.13;;;;;;;1.99;69.36;101748.69;5010430;28;20030;-71
2021/03/31 05:19:17;;;;;;;29.93;18.00;;;;;;;2.32;68.44;101744.88;5010748;28;20036;-73
2021/03/31 05:21:42;;;;;;;81.57;33.37;;;;;;;2.10;67.81;101691.09;4993887;28;20381;-73
2021/03/31 05:24:08;;;;;;;57.47;26.33;;;;;;;2.55;67.24;101754.59;5014529;28;20447;-74
2021/03/31 05:26:33;;;;;;;69.00;29.13;;;;;;;2.73;67.24;101750.25;4996424;28;20022;-71
2021/03/31 05:28:59;;;;;;;26.50;16.40;;;;;;;2.85;66.98;101740.22;5014205;28;20021;-73
2021/03/31 05:31:24;;;;;;;78.90;33.83;;;;;;;3.01;66.49;101741.59;5014031;28;20488;-72
2021/03/31 05:33:51;;;;;;;27.23;17.30;;;;;;;3.05;66.26;101734.38;5014411;28;20025;-71
2021/03/31 05:36:18;;;;;;;32.50;22.43;;;;;;;2.90;66.98;101697.28;5014312;28;20029;-73
2021/03/31 05:38:43;;;;;;;61.03;32.17;;;;;;;3.33;66.98;101744.41;5014517;28;20125;-71
2021/03/31 05:41:11;;;;;;;40.43;20.50;;;;;;;3.05;66.66;101744.56;5014052;28;20540;-72
2021/03/31 05:43:36;;;;;;;21.97;13.30;;;;;;;2.91;67.41;101734.78;4996784;28;20061;-72
2021/03/31 05:46:02;;;;;;;27.57;16.20;;;;;;;2.94;68.15;101737.63;5013501;28;20026;-73
2021/03/31 05:48:28;;;;;;;32.20;18.03;;;;;;;3.12;69.07;101746.00;5011076;28;20061;-72
2021/03/31 05:50:53;;;;;;;31.13;17.37;;;;;;;3.32;68.23;101745.16;5013959;28;20026;-71
2021/03/31 05:53:19;;;;;;;20.03;14.27;;;;;;;3.47;68.10;101745.59;5013897;28;20029;-72
2021/03/31 05:55:45;;;;;;;23.40;13.50;;;;;;;3.62;68.11;101747.69;4996340;28;20026;-71
2021/03/31 05:58:11;;;;;;;20.70;13.53;;;;;;;3.73;67.36;101732.50;5013770;28;20026;-73
2021/03/31 06:00:37;;;;;;;28.13;14.27;;;;;;;3.94;66.29;101745.31;4995801;28;20037;-73
2021/03/31 06:03:04;;;;;;;19.63;13.70;;;;;;;3.99;66.24;101746.59;5013949;28;20029;-71
2021/03/31 06:05:32;;;;;;;18.77;13.17;;;;;;;4.11;68.26;101741.63;5013453;28;20057;-72
2021/03/31 06:07:58;;;;;;;18.50;12.37;;;;;;;4.29;66.97;101738.81;5013774;28;20026;-74
2021/03/31 06:10:28;;;;;;;22.37;14.70;;;;;;;4.45;68.02;101739.28;5013901;28;20034;-72
2021/03/31 06:13:02;;;;;;;19.07;13.53;;;;;;;4.57;67.96;101739.38;5013511;28;20030;-72
2021/03/31 06:15:36;;;;;;;47.93;30.17;;;;;;;4.74;68.31;101732.22;5013296;28;20022;-72
2021/03/31 06:18:08;;;;;;;28.53;16.43;;;;;;;4.91;66.55;101741.22;5013234;28;20030;-73
2021/03/31 06:20:58;;;;;;;15.70;11.37;;;;;;;5.15;65.37;101738.06;5013361;28;20038;-71
2021/03/31 06:26:03;;;;;;;22.27;13.23;;;;;;;5.48;65.06;101733.81;4952195;29;20035;-69
2021/03/31 06:28:37;;;;;;;53.73;23.67;;;;;;;5.56;60.44;101720.69;4952475;29;20047;-74
2021/03/31 06:31:16;;;;;;;20.67;11.90;;;;;;;5.77;60.22;101708.63;4952279;29;20063;-74
2021/03/31 06:33:45;;;;;;;14.48;10.88;;;;;;;5.92;60.54;101724.28;4951106;28;20047;-73
2021/03/31 06:36:14;;;;;;;38.58;19.52;;;;;;;6.06;59.56;101712.56;4951955;29;20039;-74
2021/03/31 06:38:48;;;;;;;24.08;13.88;;;;;;;6.29;59.81;101721.97;4936209;29;20039;-72
2021/03/31 06:41:24;;;;;;;27.65;15.20;;;;;;;5.81;59.57;101606.47;4952011;29;20066;-73
2021/03/31 06:49:05;;;;;;;12.80;9.27;;;;;;;6.55;57.66;101695.66;4952237;29;20042;-73
2021/03/31 06:51:32;;;;;;;11.68;8.80;;;;;;;6.39;56.88;101644.03;4952670;29;20059;-73
2021/03/31 06:54:13;;;;;;;10.32;8.32;;;;;;;6.78;58.08;101707.59;4955455;28;20052;-74
2021/03/31 06:56:38;;;;;;;11.63;8.45;;;;;;;6.83;56.74;101697.69;4994852;28;20042;-73
2021/03/31 06:59:04;;;;;;;12.18;9.27;;;;;;;6.77;57.71;101685.28;5012615;28;20026;-73
2021/03/31 07:01:31;;;;;;;14.93;9.18;;;;;;;7.00;56.05;101691.16;5012835;28;20096;-73
2021/03/31 07:04:01;;;;;;;10.63;8.93;;;;;;;7.08;56.68;101700.31;5012448;28;20481;-73
2021/03/31 07:06:26;;;;;;;11.13;9.27;;;;;;;7.21;57.09;101685.78;5012542;28;20058;-73
2021/03/31 07:08:52;;;;;;;63.70;25.30;;;;;;;7.32;55.32;101696.81;4951862;29;20042;-73
2021/03/31 07:11:41;;;;;;;19.52;9.30;;;;;;;7.35;55.31;101692.78;4951765;29;20055;-73
2021/03/31 07:14:09;;;;;;;14.65;8.93;;;;;;;7.41;55.50;101680.34;4951465;29;20039;-73
2021/03/31 07:16:35;;;;;;;16.17;8.32;;;;;;;7.56;54.25;101695.03;4935673;29;20437;-73
2021/03/31 07:19:02;;;;;;;15.27;8.60;;;;;;;7.78;55.76;101703.41;4951713;29;20498;-73
2021/03/31 07:21:29;;;;;;;26.52;14.90;;;;;;;7.96;54.16;101691.72;4951420;29;20037;-72
2021/03/31 07:23:55;;;;;;;21.25;12.68;;;;;;;7.98;53.57;101685.88;4951410;29;20051;-74
2021/03/31 07:26:21;;;;;;;15.07;9.98;;;;;;;8.08;53.66;101702.81;4935283;29;20497;-72
2021/03/31 07:28:51;;;;;;;46.50;21.90;;;;;;;8.02;52.92;101697.28;4951145;29;20051;-72
2021/03/31 07:31:27;;;;;;;19.58;11.45;;;;;;;8.00;52.89;101688.53;4951091;29;20035;-72
2021/03/31 07:34:07;;;;;;;14.77;8.95;;;;;;;8.19;52.04;101703.56;4934983;29;20031;-70
2021/03/31 07:36:33;;;;;;;25.65;13.70;;;;;;;8.17;52.67;101663.97;4951143;29;20525;-72
2021/03/31 07:39:03;;;;;;;21.48;10.23;;;;;;;8.07;51.67;101653.06;4959002;28;20049;-73
2021/03/31 07:41:31;;;;;;;20.75;13.70;;;;;;;8.33;52.05;101691.59;5011526;28;20674;-74
2021/03/31 07:43:59;;;;;;;16.13;10.75;;;;;;;8.55;52.75;101692.22;5011441;28;20120;-73
2021/03/31 07:46:29;;;;;;;9.57;7.50;;;;;;;8.79;49.73;101697.16;5010688;28;20017;-72
2021/03/31 07:48:56;;;;;;;26.38;13.07;;;;;;;9.02;48.22;101680.63;5011158;28;20034;-71
2021/03/31 07:51:26;;;;;;;9.50;7.07;;;;;;;9.34;48.90;101692.00;5010674;28;20534;-72
2021/03/31 07:53:53;;;;;;;9.88;8.77;;;;;;;9.36;47.70;101645.72;5009297;28;20033;-73
2021/03/31 07:56:27;;;;;;;10.05;7.10;;;;;;;9.61;47.33;101672.97;5011269;28;20067;-72
2021/03/31 07:59:02;;;;;;;10.98;6.90;;;;;;;9.45;48.15;101630.81;4991416;28;20025;-72
2021/03/31 08:01:35;;;;;;;9.88;5.72;;;;;;;9.76;46.59;101691.97;5011063;28;20033;-72
2021/03/31 08:04:02;;;;;;;7.20;5.57;;;;;;;9.79;44.97;101686.09;5011154;28;20030;-72
2021/03/31 08:06:32;;;;;;;8.98;5.97;;;;;;;10.10;46.15;101687.91;5010731;28;20111;-73
2021/03/31 08:09:05;;;;;;;10.52;5.57;;;;;;;10.03;44.84;101678.91;5010920;28;20527;-72
2021/03/31 08:11:37;;;;;;;11.85;6.38;;;;;;;10.36;45.53;101681.69;5011218;28;20120;-72
2021/03/31 08:14:10;;;;;;;15.30;7.90;;;;;;;10.21;46.07;101686.84;4993253;28;20411;-73
2021/03/31 08:16:41;;;;;;;9.82;5.85;;;;;;;9.91;46.06;101642.09;4990657;28;20030;-73
2021/03/31 08:19:15;;;;;;;7.22;5.63;;;;;;;10.41;45.01;101682.84;5011113;28;20112;-72
2021/03/31 08:21:53;;;;;;;8.00;5.38;;;;;;;10.59;43.14;101679.53;5011015;28;20476;-71
2021/03/31 08:24:46;;;;;;;7.93;4.88;;;;;;;10.60;43.92;101673.56;5009310;28;20037;-72
2021/03/31 08:27:13;;;;;;;7.15;5.07;;;;;;;10.59;43.30;101679.53;5008820;28;20033;-72
2021/03/31 08:29:42;;;;;;;6.80;5.18;;;;;;;10.81;43.07;101684.22;5010929;28;20022;-72
2021/03/31 08:32:08;;;;;;;9.40;5.40;;;;;;;10.74;42.24;101675.25;5011059;28;20026;-72
2021/03/31 08:34:35;;;;;;;11.20;7.15;;;;;;;10.51;43.14;101668.78;5010746;28;20128;-73
2021/03/31 08:37:05;;;;;;;24.95;15.38;;;;;;;10.33;43.45;101673.72;5010966;28;20392;-72
2021/03/31 08:39:30;;;;;;;35.78;16.55;;;;;;;9.82;43.26;101660.47;4992962;28;20734;-72
2021/03/31 08:41:57;;;;;;;31.20;16.05;;;;;;;9.39;43.04;101597.84;5010742;28;20048;-72
2021/03/31 08:44:28;;;;;;;22.25;11.43;;;;;;;9.86;43.64;101665.91;4992867;28;20022;-72
2021/03/31 08:46:55;;;;;;;23.60;12.48;;;;;;;10.03;44.42;101604.06;5008443;28;20057;-72
2021/03/31 08:49:29;;;;;;;15.40;6.07;;;;;;;10.81;41.93;101648.03;5011170;28;20041;-73
2021/03/31 08:52:01;;;;;;;10.43;6.68;;;;;;;10.86;40.97;101651.75;5010889;28;20037;-71
2021/03/31 08:54:49;;;;;;;14.27;7.90;;;;;;;10.89;42.01;101646.78;5010331;28;20029;-69
2021/03/31 08:57:34;;;;;;;23.88;12.55;;;;;;;11.05;42.27;101640.72;5012431;28;20546;-69
2021/03/31 09:00:01;;;;;;;11.25;6.03;;;;;;;11.12;42.20;101621.28;4947941;29;20075;-69
2021/03/31 09:02:29;;;;;;;9.27;6.03;;;;;;;11.43;41.06;101644.47;4953281;29;20039;-72
2021/03/31 09:04:57;;;;;;;8.57;5.05;;;;;;;11.54;40.75;101624.34;4947321;29;20066;-70
2021/03/31 09:07:23;;;;;;;13.30;7.90;;;;;;;11.68;40.95;101609.53;4952878;29;20529;-70
2021/03/31 09:09:49;;;;;;;12.93;5.72;;;;;;;11.85;38.02;101625.91;4953114;29;20042;-76
2021/03/31 09:12:17;;;;;;;19.65;10.63;;;;;;;11.89;41.18;101627.81;4953102;29;20027;-70
2021/03/31 09:14:47;;;;;;;19.65;11.18;;;;;;;11.96;40.76;101621.28;4952976;29;20083;-69
2021/03/31 09:17:27;;;;;;;12.57;8.40;;;;;;;11.72;41.82;101562.28;4951642;29;20131;-70
2021/03/31 09:19:54;;;;;;;;;;;;;;;12.18;39.77;101620.66;4953746;29;20506;-73
2021/03/31 09:22:23;;;;;;;9.60;5.28;;;;;;;12.01;38.95;101617.22;4926290;29;19925;-69
2021/03/31 09:24:51;;;;;;;10.00;7.13;;;;;;;11.84;38.87;101618.03;4919869;29;20040;-69
2021/03/31 09:27:27;;;;;;;7.88;6.10;;;;;;;11.57;38.94;101610.69;4918875;29;20028;-70
2021/03/31 09:29:54;;;;;;;9.27;5.90;;;;;;;11.80;39.29;101614.41;4937619;28;20067;-74
2021/03/31 09:32:27;;;;;;;7.53;5.20;;;;;;;11.89;38.65;101607.13;5000211;28;20029;-73
2021/03/31 09:34:53;;;;;;;9.10;5.55;;;;;;;11.81;41.03;101567.94;4996245;28;20048;-70
2021/03/31 09:37:19;;;;;;;10.00;5.55;;;;;;;11.98;41.60;101606.72;5013610;28;20080;-75
2021/03/31 09:39:56;;;;;;;10.10;4.65;;;;;;;12.17;39.30;101585.22;4981890;28;20049;-75
2021/03/31 09:42:34;;;;;;;38.83;17.65;;;;;;;12.40;40.69;101596.69;4996182;28;20732;-75
2021/03/31 09:45:01;;;;;;;8.82;5.22;;;;;;;12.36;38.10;101588.69;5007299;28;20038;-71
2021/03/31 09:47:34;;;;;;;5.78;4.53;;;;;;;12.24;37.91;101595.06;5011003;28;20056;-70
2021/03/31 09:49:59;;;;;;;7.45;5.30;;;;;;;12.31;37.40;101588.47;5004431;28;20045;-73
2021/03/31 09:52:27;;;;;;;9.52;4.93;;;;;;;12.53;36.26;101573.94;4992257;28;20030;-71
2021/03/31 09:54:53;;;;;;;10.95;5.93;;;;;;;12.78;39.18;101573.38;4994452;28;20026;-71
2021/03/31 09:57:24;;;;;;;9.88;5.25;;;;;;;12.87;35.69;101563.44;5001815;28;20045;-70
2021/03/31 09:59:50;;;;;;;7.38;5.40;;;;;;;12.67;37.37;101520.19;4994598;28;20037;-71
2021/03/31 10:02:16;;;;;;;14.20;8.65;;;;;;;12.50;39.04;101553.97;4994646;28;20528;-71
2021/03/31 10:04:43;;;;;;;25.15;9.05;;;;;;;12.72;40.22;101576.59;4995315;28;20057;-70
2021/03/31 10:07:10;;;;;;;10.95;5.63;;;;;;;12.95;38.48;101558.59;4995352;28;20489;-74
2021/03/31 10:09:44;;;;;;;6.65;4.70;;;;;;;13.19;36.75;101552.72;4994433;28;20042;-73
2021/03/31 10:12:11;;;;;;;13.48;6.68;;;;;;;13.35;36.53;101555.16;5010546;28;20026;-74
2021/03/31 10:14:48;;;;;;;10.30;5.68;;;;;;;13.59;37.15;101557.94;5012683;28;20113;-73
2021/03/31 10:17:17;;;;;;;16.85;6.40;;;;;;;13.49;35.15;101552.31;5011225;28;20033;-73
2021/03/31 10:19:43;;;;;;;11.02;6.93;;;;;;;13.53;35.76;101531.75;5012154;28;20034;-70
2021/03/31 10:22:09;;;;;;;11.35;7.32;;;;;;;13.54;36.14;101524.84;5012535;28;20492;-72
2021/03/31 10:24:46;;;;;;;10.82;7.20;;;;;;;13.16;36.47;101531.81;5008260;28;20121;-74
2021/03/31 10:27:14;;;;;;;7.20;5.38;;;;;;;12.90;36.22;101531.59;4995882;28;20521;-72
2021/03/31 10:29:51;;;;;;;29.63;16.23;;;;;;;13.19;35.33;101527.66;4997869;28;20033;-75
2021/03/31 10:32:19;;;;;;;10.15;5.78;;;;;;;13.29;36.43;101489.19;4936234;28;20118;-75
2021/03/31 10:34:53;;;;;;;11.10;6.95;;;;;;;13.70;36.57;101514.25;4935767;28;20036;-74
2021/03/31 10:37:43;;;;;;;9.27;5.90;;;;;;;13.34;38.64;101517.06;4933659;28;20065;-74
2021/03/31 10:53:17;;;;;;;13.98;9.60;;;;;;;12.96;36.98;101482.63;4950790;28;20027;-71
2021/03/31 10:55:44;;;;;;;25.23;15.23;;;;;;;12.84;37.21;101493.31;4933290;28;20036;-75
2021/03/31 10:58:10;;;;;;;16.42;11.10;;;;;;;12.74;36.76;101489.44;4934582;28;20039;-70
2021/03/31 11:00:37;;;;;;;21.05;12.85;;;;;;;13.09;38.63;101491.78;4933610;28;20027;-70
2021/03/31 11:03:03;;;;;;;9.90;7.25;;;;;;;13.42;37.19;101482.00;4966713;28;20496;-72
2021/03/31 11:05:29;;;;;;;12.27;8.07;;;;;;;13.81;36.53;101473.19;4994417;28;20030;-74
2021/03/31 11:07:55;;;;;;;11.40;6.40;;;;;;;13.87;37.44;101465.63;4975624;28;20050;-72
2021/03/31 11:10:21;;;;;;;11.23;6.72;;;;;;;13.27;35.90;101457.97;4993077;28;20636;-69
2021/03/31 11:12:46;;;;;;;7.47;4.18;;;;;;;12.66;35.16;101456.22;4991918;28;20045;-73
2021/03/31 11:15:15;;;;;;;16.13;9.75;;;;;;;12.87;37.19;101461.47;4994115;28;20057;-73
2021/03/31 11:25:58;;;;;;;9.75;5.95;;;;;;;13.94;36.19;101435.59;4917558;29;20047;-71
2021/03/31 11:28:24;;;;;;;10.05;6.05;;;;;;;14.06;35.43;101417.03;4915942;29;20126;-71
2021/03/31 11:30:50;;;;;;;9.27;5.97;;;;;;;14.56;36.63;101443.09;4919682;29;20524;-71
2021/03/31 11:33:17;;;;;;;16.90;12.57;;;;;;;14.76;36.56;101414.38;4926637;29;20039;-73
2021/03/31 11:35:43;;;;;;;8.93;5.97;;;;;;;14.90;36.22;101417.44;4898594;29;20127;-70
2021/03/31 11:38:10;;;;;;;7.28;5.25;;;;;;;14.66;34.84;101420.97;4918106;29;20174;-72
2021/03/31 11:40:35;;;;;;;13.80;8.73;;;;;;;14.57;33.25;101367.78;4913762;29;20040;-72
2021/03/31 11:43:01;;;;;;;10.88;6.03;;;;;;;15.04;33.61;101419.69;4913740;29;20115;-71
2021/03/31 11:45:27;;;;;;;10.93;4.88;;;;;;;15.23;33.26;101412.50;4912457;29;20054;-71
2021/03/31 11:47:53;;;;;;;8.15;4.85;;;;;;;15.40;31.60;101406.97;4917102;29;20036;-69
2021/03/31 11:50:19;;;;;;;12.45;7.03;;;;;;;15.43;33.25;101391.47;4920375;29;20467;-73
2021/03/31 11:52:44;;;;;;;20.38;14.95;;;;;;;15.48;32.80;101397.69;4899383;29;20020;-70
2021/03/31 11:55:10;;;;;;;14.38;7.82;;;;;;;15.08;34.26;101358.25;4901451;29;20097;-71